Berlin Center, OH (44401)

2:01 PM EST on February 06, 2016 (GMT -0500)
KOHBERLI2 | | Change Station
CLOSE
Current Station
Personal Weather Station
Location: Berlin Center, OH
Elevation: 1053 ft
Nearby Weather Stations

Elev 1053 ft 41.07 °N, 80.95 °W | Updated 8 seconds ago

Clear
Clear
40.1 °F
Feels Like 34 °F
N
10.0
Wind Variable Wind from SW
Gusts 13.0 mph

Today
High -- | Low -- °F
--% Chance of Precip.
Yesterday
High -- | Low -- °F
Precip. -- in
Pressure 30.21 in
Visibility 10.0 miles
Clouds Clear
Windchill 34 °F
Dew Point 18 °F
Humidity 41%
Rainfall 0.00 in
Snow Depth Not available.
7:29 AM 5:46 PM
Waning Crescent, 4% visible
METAR KPOV 061859Z AUTO 24007KT 200V260 10SM CLR 03/M07 A3021 RMK AO2 T00301071
Pressure 30.21 in
Visibility 10.0 miles
Clouds Clear
Windchill 34 °F
Dew Point 18 °F
Humidity 41%
Rainfall 0.00 in
Snow Depth Not available.
7:29 AM 5:46 PM
Waning Crescent, 4% visible
METAR KPOV 061859Z AUTO 24007KT 200V260 10SM CLR 03/M07 A3021 RMK AO2 T00301071

10-Day Weather Forecast

Almanac

Astronomy

Feb. 06, 2016 Rise Set
Actual Time
Civil Twilight
Nautical Twilight
Astronomical Twilight
Moon
Length of Visible Light
Length of Day
Tomorrow will be .
, % of the Moon is Illuminated

Today's Extremes

State Highs State Lows

Community

WunderPhotos

Upload Photos

1,891,033 photos uploaded!

WunderBlog® & News

Nearby

Air Quality

  Air Quality AQ Index Pollutant
Not available.

Snow Depth

Station Depth Elevation

Earthquake Activity

City Distance Mag. Time & Date
Minimum magnitude displayed is 2.5.

Coastal Water Temperatures

Place Temperature

Stations

Nearby Weather Stations

Station Location Temp. Windchill Dew Point Humidity Wind Precip. Elev Updated Type
                   

Watches & Warnings

There are currently no watches in effect.